sensor_id;sensor_type;location;lat;lon;timestamp;pressure;altitude;pressure_sealevel;temperature;humidity
71764;BME280;59602;52.142;5.408;2023-02-21T00:00:30;102180.91;;;8.40;96.77
71764;BME280;59602;52.142;5.408;2023-02-21T00:03:15;102185.50;;;8.39;96.71
71764;BME280;59602;52.142;5.408;2023-02-21T00:06:00;102184.13;;;8.42;96.84
71764;BME280;59602;52.142;5.408;2023-02-21T00:08:45;102181.41;;;8.42;96.74
71764;BME280;59602;52.142;5.408;2023-02-21T00:11:30;102178.34;;;8.43;97.04
71764;BME280;59602;52.142;5.408;2023-02-21T00:14:15;102177.56;;;8.43;96.65
71764;BME280;59602;52.142;5.408;2023-02-21T00:17:00;102173.72;;;8.44;96.64
71764;BME280;59602;52.142;5.408;2023-02-21T00:19:45;102183.75;;;8.43;97.05
71764;BME280;59602;52.142;5.408;2023-02-21T00:22:30;102181.06;;;8.43;96.86
71764;BME280;59602;52.142;5.408;2023-02-21T00:25:15;102179.13;;;8.44;96.88
71764;BME280;59602;52.142;5.408;2023-02-21T00:28:00;102187.59;;;8.42;96.99
71764;BME280;59602;52.142;5.408;2023-02-21T00:30:45;102180.25;;;8.43;97.06
71764;BME280;59602;52.142;5.408;2023-02-21T00:33:30;102186.47;;;8.43;96.96
71764;BME280;59602;52.142;5.408;2023-02-21T00:36:19;102186.47;;;8.43;97.08
71764;BME280;59602;52.142;5.408;2023-02-21T00:39:04;102193.34;;;8.41;96.97
71764;BME280;59602;52.142;5.408;2023-02-21T00:41:49;102181.72;;;8.40;96.93
71764;BME280;59602;52.142;5.408;2023-02-21T00:44:34;102187.16;;;8.40;97.20
71764;BME280;59602;52.142;5.408;2023-02-21T00:47:19;102184.13;;;8.42;96.89
71764;BME280;59602;52.142;5.408;2023-02-21T00:50:06;102190.31;;;8.42;97.27
71764;BME280;59602;52.142;5.408;2023-02-21T00:52:51;102177.09;;;8.41;96.99
71764;BME280;59602;52.142;5.408;2023-02-21T00:55:36;102177.56;;;8.43;97.09
71764;BME280;59602;52.142;5.408;2023-02-21T00:58:22;102176.78;;;8.42;97.03
71764;BME280;59602;52.142;5.408;2023-02-21T01:01:07;102169.75;;;8.41;97.35
71764;BME280;59602;52.142;5.408;2023-02-21T01:03:52;102165.47;;;8.40;97.25
71764;BME280;59602;52.142;5.408;2023-02-21T01:06:37;102167.03;;;8.41;97.32
71764;BME280;59602;52.142;5.408;2023-02-21T01:09:22;102167.03;;;8.41;97.00
71764;BME280;59602;52.142;5.408;2023-02-21T01:12:07;102161.94;;;8.40;97.50
71764;BME280;59602;52.142;5.408;2023-02-21T01:14:53;102156.06;;;8.38;97.48
71764;BME280;59602;52.142;5.408;2023-02-21T01:17:38;102159.09;;;8.36;97.40
71764;BME280;59602;52.142;5.408;2023-02-21T01:20:23;102157.16;;;8.37;97.56
71764;BME280;59602;52.142;5.408;2023-02-21T01:23:08;102161.00;;;8.36;97.59
71764;BME280;59602;52.142;5.408;2023-02-21T01:25:53;102164.81;;;8.35;97.35
71764;BME280;59602;52.142;5.408;2023-02-21T01:28:38;102152.09;;;8.35;97.65
71764;BME280;59602;52.142;5.408;2023-02-21T01:31:23;102154.00;;;8.35;97.74
71764;BME280;59602;52.142;5.408;2023-02-21T01:34:08;102146.69;;;8.35;97.62
71764;BME280;59602;52.142;5.408;2023-02-21T01:36:54;102145.06;;;8.34;97.79
71764;BME280;59602;52.142;5.408;2023-02-21T01:39:39;102147.78;;;8.34;97.55
71764;BME280;59602;52.142;5.408;2023-02-21T01:42:24;102135.38;;;8.33;97.70
71764;BME280;59602;52.142;5.408;2023-02-21T01:48:07;102134.22;;;8.34;97.97
71764;BME280;59602;52.142;5.408;2023-02-21T01:50:53;102146.69;;;8.35;97.80
71764;BME280;59602;52.142;5.408;2023-02-21T01:53:42;102137.88;;;8.38;97.80
71764;BME280;59602;52.142;5.408;2023-02-21T01:56:29;102139.78;;;8.38;97.54
71764;BME280;59602;52.142;5.408;2023-02-21T01:59:17;102141.69;;;8.37;97.75
71764;BME280;59602;52.142;5.408;2023-02-21T02:02:11;102127.34;;;8.37;97.85
71764;BME280;59602;52.142;5.408;2023-02-21T02:04:58;102127.03;;;8.38;97.74
71764;BME280;59602;52.142;5.408;2023-02-21T02:07:44;102128.59;;;8.39;97.80
71764;BME280;59602;52.142;5.408;2023-02-21T02:10:31;102131.31;;;8.39;97.66
71764;BME280;59602;52.142;5.408;2023-02-21T02:13:32;102127.81;;;8.39;97.54
71764;BME280;59602;52.142;5.408;2023-02-21T02:16:39;102129.41;;;8.40;97.67
71764;BME280;59602;52.142;5.408;2023-02-21T02:24:35;102130.69;;;8.42;97.84
71764;BME280;59602;52.142;5.408;2023-02-21T02:27:30;102133.41;;;8.42;97.70
71764;BME280;59602;52.142;5.408;2023-02-21T02:30:26;102128.31;;;8.41;97.79
71764;BME280;59602;52.142;5.408;2023-02-21T02:35:47;102118.25;;;8.41;97.76
71764;BME280;59602;52.142;5.408;2023-02-21T02:38:26;102118.41;;;8.45;97.92
71764;BME280;59602;52.142;5.408;2023-02-21T02:40:59;102112.50;;;8.43;97.69
71764;BME280;59602;52.142;5.408;2023-02-21T02:43:32;102112.19;;;8.44;97.70
71764;BME280;59602;52.142;5.408;2023-02-21T02:46:12;102117.25;;;8.46;97.69
71764;BME280;59602;52.142;5.408;2023-02-21T02:48:45;102121.56;;;8.47;97.82
71764;BME280;59602;52.142;5.408;2023-02-21T02:51:14;102129.69;;;8.47;97.60
71764;BME280;59602;52.142;5.408;2023-02-21T02:53:42;102135.91;;;8.47;97.62
71764;BME280;59602;52.142;5.408;2023-02-21T02:56:13;102130.03;;;8.45;97.58
71764;BME280;59602;52.142;5.408;2023-02-21T02:58:46;102134.31;;;8.46;97.59
71764;BME280;59602;52.142;5.408;2023-02-21T03:01:37;102135.13;;;8.47;97.84
71764;BME280;59602;52.142;5.408;2023-02-21T03:12:47;102116.47;;;8.45;97.64
71764;BME280;59602;52.142;5.408;2023-02-21T03:15:20;102119.19;;;8.45;97.75
71764;BME280;59602;52.142;5.408;2023-02-21T03:17:58;102121.09;;;8.45;97.67
71764;BME280;59602;52.142;5.408;2023-02-21T03:20:32;102116.00;;;8.43;97.73
71764;BME280;59602;52.142;5.408;2023-02-21T03:23:01;102119.06;;;8.42;97.98
71764;BME280;59602;52.142;5.408;2023-02-21T03:25:30;102114.44;;;8.42;97.79
71764;BME280;59602;52.142;5.408;2023-02-21T03:27:59;102112.97;;;8.45;97.82
71764;BME280;59602;52.142;5.408;2023-02-21T03:30:27;102105.63;;;8.45;98.06
71764;BME280;59602;52.142;5.408;2023-02-21T03:32:54;102114.06;;;8.44;97.79
71764;BME280;59602;52.142;5.408;2023-02-21T03:35:21;102111.38;;;8.44;97.80
71764;BME280;59602;52.142;5.408;2023-02-21T03:37:49;102119.50;;;8.44;98.01
71764;BME280;59602;52.142;5.408;2023-02-21T03:40:21;102113.28;;;8.43;97.91
71764;BME280;59602;52.142;5.408;2023-02-21T03:42:51;102111.03;;;8.45;98.18
71764;BME280;59602;52.142;5.408;2023-02-21T03:45:18;102114.53;;;8.46;98.06
71764;BME280;59602;52.142;5.408;2023-02-21T03:47:45;102111.03;;;8.45;97.96
71764;BME280;59602;52.142;5.408;2023-02-21T03:50:12;102102.91;;;8.45;98.24
71764;BME280;59602;52.142;5.408;2023-02-21T03:52:38;102102.91;;;8.45;97.97
71764;BME280;59602;52.142;5.408;2023-02-21T03:55:06;102104.50;;;8.46;98.09
71764;BME280;59602;52.142;5.408;2023-02-21T03:57:33;102111.19;;;8.49;98.21
71764;BME280;59602;52.142;5.408;2023-02-21T04:00:00;102108.47;;;8.49;98.07
71764;BME280;59602;52.142;5.408;2023-02-21T04:02:26;102103.38;;;8.47;97.80
71764;BME280;59602;52.142;5.408;2023-02-21T04:04:53;102090.97;;;8.46;97.89
71764;BME280;59602;52.142;5.408;2023-02-21T04:07:20;102100.66;;;8.47;98.06
71764;BME280;59602;52.142;5.408;2023-02-21T04:09:48;102100.34;;;8.49;97.94
71764;BME280;59602;52.142;5.408;2023-02-21T04:12:15;102098.41;;;8.49;98.14
71764;BME280;59602;52.142;5.408;2023-02-21T04:14:41;102103.06;;;8.49;98.08
71764;BME280;59602;52.142;5.408;2023-02-21T04:17:08;102114.34;;;8.51;98.01
71764;BME280;59602;52.142;5.408;2023-02-21T04:19:35;102110.50;;;8.52;98.28
71764;BME280;59602;52.142;5.408;2023-02-21T04:22:01;102095.72;;;8.49;98.10
71764;BME280;59602;52.142;5.408;2023-02-21T04:24:28;102104.63;;;8.50;98.22
71764;BME280;59602;52.142;5.408;2023-02-21T04:26:54;102103.84;;;8.49;97.93
71764;BME280;59602;52.142;5.408;2023-02-21T04:29:21;102104.97;;;8.48;98.05
71764;BME280;59602;52.142;5.408;2023-02-21T04:31:47;102089.03;;;8.47;98.17
71764;BME280;59602;52.142;5.408;2023-02-21T04:34:14;102085.53;;;8.46;98.49
71764;BME280;59602;52.142;5.408;2023-02-21T04:36:42;102089.81;;;8.47;98.33
71764;BME280;59602;52.142;5.408;2023-02-21T04:39:09;102088.72;;;8.48;98.63
71764;BME280;59602;52.142;5.408;2023-02-21T04:41:35;102095.72;;;8.49;98.42
71764;BME280;59602;52.142;5.408;2023-02-21T04:44:02;102094.13;;;8.48;98.40
71764;BME280;59602;52.142;5.408;2023-02-21T04:46:28;102089.81;;;8.47;98.46
71764;BME280;59602;52.142;5.408;2023-02-21T04:48:55;102088.72;;;8.48;98.32
71764;BME280;59602;52.142;5.408;2023-02-21T04:51:23;102087.91;;;8.48;98.25
71764;BME280;59602;52.142;5.408;2023-02-21T04:53:51;102091.44;;;8.48;98.38
71764;BME280;59602;52.142;5.408;2023-02-21T04:56:20;102092.22;;;8.49;98.48
71764;BME280;59602;52.142;5.408;2023-02-21T04:58:48;102087.56;;;8.49;98.49
71764;BME280;59602;52.142;5.408;2023-02-21T05:01:15;102089.16;;;8.50;98.30
71764;BME280;59602;52.142;5.408;2023-02-21T05:03:43;102094.91;;;8.49;98.42
71764;BME280;59602;52.142;5.408;2023-02-21T05:06:17;102095.56;;;8.46;98.52
71764;BME280;59602;52.142;5.408;2023-02-21T05:08:44;102086.66;;;8.45;98.64
71764;BME280;59602;52.142;5.408;2023-02-21T05:11:10;102088.56;;;8.45;98.46
71764;BME280;59602;52.142;5.408;2023-02-21T05:13:38;102093.69;;;8.46;98.47
71764;BME280;59602;52.142;5.408;2023-02-21T05:16:05;102101.00;;;8.46;98.58
71764;BME280;59602;52.142;5.408;2023-02-21T05:18:31;102100.19;;;8.45;98.74
71764;BME280;59602;52.142;5.408;2023-02-21T05:20:59;102094.47;;;8.47;98.75
71764;BME280;59602;52.142;5.408;2023-02-21T05:23:28;102099.56;;;8.48;98.70
71764;BME280;59602;52.142;5.408;2023-02-21T05:26:05;102101.13;;;8.49;98.74
71764;BME280;59602;52.142;5.408;2023-02-21T05:28:32;102107.34;;;8.50;98.72
71764;BME280;59602;52.142;5.408;2023-02-21T05:30:59;102102.28;;;8.48;98.70
71764;BME280;59602;52.142;5.408;2023-02-21T05:33:26;102100.66;;;8.47;99.02
71764;BME280;59602;52.142;5.408;2023-02-21T05:35:53;102103.38;;;8.47;98.80
71764;BME280;59602;52.142;5.408;2023-02-21T05:38:21;102103.69;;;8.46;98.89
71764;BME280;59602;52.142;5.408;2023-02-21T05:40:49;102110.72;;;8.47;98.83
71764;BME280;59602;52.142;5.408;2023-02-21T05:43:15;102108.00;;;8.47;99.00
71764;BME280;59602;52.142;5.408;2023-02-21T05:45:43;102108.47;;;8.49;99.17
71764;BME280;59602;52.142;5.408;2023-02-21T05:48:10;102106.56;;;8.49;98.83
71764;BME280;59602;52.142;5.408;2023-02-21T05:50:38;102103.06;;;8.49;98.81
71764;BME280;59602;52.142;5.408;2023-02-21T05:53:05;102100.66;;;8.47;98.88
71764;BME280;59602;52.142;5.408;2023-02-21T05:55:33;102106.09;;;8.47;99.15
71764;BME280;59602;52.142;5.408;2023-02-21T05:57:59;102108.00;;;8.47;99.25
71764;BME280;59602;52.142;5.408;2023-02-21T06:00:28;102113.91;;;8.49;98.79
71764;BME280;59602;52.142;5.408;2023-02-21T06:02:55;102118.63;;;8.52;99.29
71764;BME280;59602;52.142;5.408;2023-02-21T06:05:23;102112.44;;;8.51;98.96
71764;BME280;59602;52.142;5.408;2023-02-21T06:07:50;102115.59;;;8.54;98.80
71764;BME280;59602;52.142;5.408;2023-02-21T06:10:17;102106.34;;;8.55;99.07
71764;BME280;59602;52.142;5.408;2023-02-21T06:12:44;102109.84;;;8.55;98.88
71764;BME280;59602;52.142;5.408;2023-02-21T06:15:11;102113.34;;;8.56;98.79
71764;BME280;59602;52.142;5.408;2023-02-21T06:17:40;102116.84;;;8.56;98.95
71764;BME280;59602;52.142;5.408;2023-02-21T06:20:10;102114.94;;;8.57;99.14
71764;BME280;59602;52.142;5.408;2023-02-21T06:22:37;102110.28;;;8.57;98.76
71764;BME280;59602;52.142;5.408;2023-02-21T06:25:04;102106.78;;;8.57;98.60
71764;BME280;59602;52.142;5.408;2023-02-21T06:27:31;102114.47;;;8.55;98.67
71764;BME280;59602;52.142;5.408;2023-02-21T06:29:58;102118.00;;;8.55;98.97
71764;BME280;59602;52.142;5.408;2023-02-21T06:32:24;102116.38;;;8.54;98.83
71764;BME280;59602;52.142;5.408;2023-02-21T06:34:53;102118.78;;;8.56;98.62
71764;BME280;59602;52.142;5.408;2023-02-21T06:37:19;102120.69;;;8.55;98.86
71764;BME280;59602;52.142;5.408;2023-02-21T06:39:46;102118.00;;;8.55;98.90
71764;BME280;59602;52.142;5.408;2023-02-21T06:42:13;102119.56;;;8.56;99.11
71764;BME280;59602;52.142;5.408;2023-02-21T06:44:43;102120.69;;;8.55;98.77
71764;BME280;59602;52.142;5.408;2023-02-21T06:47:10;102124.53;;;8.54;98.92
71764;BME280;59602;52.142;5.408;2023-02-21T06:49:36;102118.31;;;8.54;98.95
71764;BME280;59602;52.142;5.408;2023-02-21T06:52:03;102115.59;;;8.54;99.18
71764;BME280;59602;52.142;5.408;2023-02-21T06:54:30;102114.81;;;8.53;98.92
71764;BME280;59602;52.142;5.408;2023-02-21T06:56:56;102118.00;;;8.55;99.14
71764;BME280;59602;52.142;5.408;2023-02-21T06:59:24;102121.47;;;8.56;99.00
71764;BME280;59602;52.142;5.408;2023-02-21T07:01:50;102117.63;;;8.57;99.23
71764;BME280;59602;52.142;5.408;2023-02-21T07:04:21;102123.72;;;8.54;99.00
71764;BME280;59602;52.142;5.408;2023-02-21T07:06:49;102124.38;;;8.50;99.25
71764;BME280;59602;52.142;5.408;2023-02-21T07:09:49;102122.81;;;8.49;99.19
71764;BME280;59602;52.142;5.408;2023-02-21T07:12:16;102118.53;;;8.48;99.23
71764;BME280;59602;52.142;5.408;2023-02-21T07:14:43;102118.97;;;8.50;99.47
71764;BME280;59602;52.142;5.408;2023-02-21T07:17:09;102127.56;;;8.52;99.66
71764;BME280;59602;52.142;5.408;2023-02-21T07:19:36;102124.19;;;8.56;99.34
71764;BME280;59602;52.142;5.408;2023-02-21T07:22:02;102121.13;;;8.57;99.19
71764;BME280;59602;52.142;5.408;2023-02-21T07:24:29;102128.47;;;8.57;99.38
71764;BME280;59602;52.142;5.408;2023-02-21T07:26:56;102118.00;;;8.55;99.18
71764;BME280;59602;52.142;5.408;2023-02-21T07:29:23;102111.75;;;8.55;99.07
71764;BME280;59602;52.142;5.408;2023-02-21T07:31:51;102116.84;;;8.56;99.21
71764;BME280;59602;52.142;5.408;2023-02-21T07:34:18;102118.41;;;8.57;99.46
71764;BME280;59602;52.142;5.408;2023-02-21T07:36:46;102124.97;;;8.56;99.48
71764;BME280;59602;52.142;5.408;2023-02-21T07:39:12;102124.97;;;8.56;99.67
71764;BME280;59602;52.142;5.408;2023-02-21T07:41:39;102123.84;;;8.57;99.62
71764;BME280;59602;52.142;5.408;2023-02-21T07:44:06;102130.88;;;8.58;99.46
71764;BME280;59602;52.142;5.408;2023-02-21T07:46:33;102132.44;;;8.59;99.42
71764;BME280;59602;52.142;5.408;2023-02-21T07:49:00;102133.25;;;8.60;99.26
71764;BME280;59602;52.142;5.408;2023-02-21T07:51:28;102139.91;;;8.62;99.28
71764;BME280;59602;52.142;5.408;2023-02-21T07:53:55;102142.63;;;8.62;99.59
71764;BME280;59602;52.142;5.408;2023-02-21T07:56:22;102140.72;;;8.63;99.46
71764;BME280;59602;52.142;5.408;2023-02-21T07:58:49;102141.16;;;8.65;99.19
71764;BME280;59602;52.142;5.408;2023-02-21T08:01:16;102141.28;;;8.68;99.23
71764;BME280;59602;52.142;5.408;2023-02-21T08:03:43;102144.34;;;8.67;99.25
71764;BME280;59602;52.142;5.408;2023-02-21T08:06:10;102135.41;;;8.66;99.33
71764;BME280;59602;52.142;5.408;2023-02-21T08:08:37;102136.22;;;8.67;99.08
71764;BME280;59602;52.142;5.408;2023-02-21T08:11:04;102141.63;;;8.67;99.42
71764;BME280;59602;52.142;5.408;2023-02-21T08:13:32;102142.41;;;8.67;99.17
71764;BME280;59602;52.142;5.408;2023-02-21T08:15:58;102137.78;;;8.68;99.18
71764;BME280;59602;52.142;5.408;2023-02-21T08:18:25;102137.44;;;8.69;99.28
71764;BME280;59602;52.142;5.408;2023-02-21T08:20:53;102133.59;;;8.70;99.51
71764;BME280;59602;52.142;5.408;2023-02-21T08:23:21;102125.00;;;8.68;99.25
71764;BME280;59602;52.142;5.408;2023-02-21T08:25:48;102136.53;;;8.65;99.44
71764;BME280;59602;52.142;5.408;2023-02-21T08:28:15;102133.50;;;8.67;99.23
71764;BME280;59602;52.142;5.408;2023-02-21T08:30:41;102129.66;;;8.68;99.40
71764;BME280;59602;52.142;5.408;2023-02-21T08:33:08;102133.50;;;8.67;99.20
71764;BME280;59602;52.142;5.408;2023-02-21T08:35:35;102129.66;;;8.68;99.41
71764;BME280;59602;52.142;5.408;2023-02-21T08:38:01;102125.00;;;8.68;99.63
71764;BME280;59602;52.142;5.408;2023-02-21T08:40:30;102126.59;;;8.69;99.43
71764;BME280;59602;52.142;5.408;2023-02-21T08:42:58;102124.69;;;8.70;99.49
71764;BME280;59602;52.142;5.408;2023-02-21T08:45:26;102123.91;;;8.69;99.61
71764;BME280;59602;52.142;5.408;2023-02-21T08:47:55;102118.47;;;8.69;99.90
71764;BME280;59602;52.142;5.408;2023-02-21T08:50:23;102129.78;;;8.71;100.00
71764;BME280;59602;52.142;5.408;2023-02-21T08:52:50;102120.84;;;8.71;99.55
71764;BME280;59602;52.142;5.408;2023-02-21T08:55:18;102130.25;;;8.73;99.69
71764;BME280;59602;52.142;5.408;2023-02-21T08:57:47;102125.94;;;8.72;99.68
71764;BME280;59602;52.142;5.408;2023-02-21T09:00:14;102124.03;;;8.73;99.70
71764;BME280;59602;52.142;5.408;2023-02-21T09:02:41;102125.47;;;8.70;99.68
71764;BME280;59602;52.142;5.408;2023-02-21T09:05:10;102115.44;;;8.71;99.71
71764;BME280;59602;52.142;5.408;2023-02-21T09:07:37;102121.31;;;8.73;99.78
71764;BME280;59602;52.142;5.408;2023-02-21T09:10:05;102118.94;;;8.71;99.98
71764;BME280;59602;52.142;5.408;2023-02-21T09:12:32;102121.31;;;8.73;99.92
71764;BME280;59602;52.142;5.408;2023-02-21T09:14:58;102113.97;;;8.73;99.87
71764;BME280;59602;52.142;5.408;2023-02-21T09:17:25;102114.75;;;8.74;100.00
71764;BME280;59602;52.142;5.408;2023-02-21T09:19:52;102113.97;;;8.73;99.82
71764;BME280;59602;52.142;5.408;2023-02-21T09:22:18;102114.63;;;8.70;100.00
71764;BME280;59602;52.142;5.408;2023-02-21T09:24:46;102110.47;;;8.73;99.92
71764;BME280;59602;52.142;5.408;2023-02-21T09:27:13;102106.50;;;8.70;99.86
71764;BME280;59602;52.142;5.408;2023-02-21T09:29:43;102113.06;;;8.69;99.81
71764;BME280;59602;52.142;5.408;2023-02-21T09:32:12;102110.00;;;8.71;99.67
71764;BME280;59602;52.142;5.408;2023-02-21T09:34:39;102109.19;;;8.70;99.75
71764;BME280;59602;52.142;5.408;2023-02-21T09:37:06;102104.59;;;8.71;99.93
71764;BME280;59602;52.142;5.408;2023-02-21T09:39:36;102092.28;;;8.73;99.92
71764;BME280;59602;52.142;5.408;2023-02-21T09:42:02;102096.69;;;8.78;100.00
71764;BME280;59602;52.142;5.408;2023-02-21T09:44:29;102095.91;;;8.78;100.00
71764;BME280;59602;52.142;5.408;2023-02-21T09:47:01;102093.19;;;8.78;100.00
71764;BME280;59602;52.142;5.408;2023-02-21T09:49:39;102088.88;;;8.77;100.00
71764;BME280;59602;52.142;5.408;2023-02-21T09:52:18;102091.91;;;8.75;99.84
71764;BME280;59602;52.142;5.408;2023-02-21T09:54:53;102097.03;;;8.77;100.00
71764;BME280;59602;52.142;5.408;2023-02-21T09:57:21;102096.00;;;8.81;99.80
71764;BME280;59602;52.142;5.408;2023-02-21T10:00:09;102089.94;;;8.84;100.00
71764;BME280;59602;52.142;5.408;2023-02-21T10:02:58;102083.25;;;8.82;99.75
71764;BME280;59602;52.142;5.408;2023-02-21T10:05:43;102081.44;;;8.86;100.00
71764;BME280;59602;52.142;5.408;2023-02-21T10:08:25;102082.59;;;8.85;99.87
71764;BME280;59602;52.142;5.408;2023-02-21T10:13:53;102081.69;;;8.93;99.85
71764;BME280;59602;52.142;5.408;2023-02-21T10:16:28;102080.88;;;8.92;99.97
71764;BME280;59602;52.142;5.408;2023-02-21T10:19:12;102082.13;;;8.95;99.86
71764;BME280;59602;52.142;5.408;2023-02-21T10:21:45;102085.31;;;8.97;99.79
71764;BME280;59602;52.142;5.408;2023-02-21T10:24:18;102087.34;;;9.00;99.55
71764;BME280;59602;52.142;5.408;2023-02-21T10:26:52;102091.63;;;9.01;99.51
71764;BME280;59602;52.142;5.408;2023-02-21T10:29:32;102085.88;;;9.03;99.75
71764;BME280;59602;52.142;5.408;2023-02-21T10:32:01;102090.16;;;9.04;99.32
71764;BME280;59602;52.142;5.408;2023-02-21T10:34:31;102096.84;;;9.06;99.24
71764;BME280;59602;52.142;5.408;2023-02-21T10:39:43;102094.56;;;9.08;99.42
71764;BME280;59602;52.142;5.408;2023-02-21T10:42:16;102100.00;;;9.08;99.10
71764;BME280;59602;52.142;5.408;2023-02-21T10:44:44;102095.41;;;9.09;99.18
71764;BME280;59602;52.142;5.408;2023-02-21T10:47:22;102097.19;;;9.05;99.08
71764;BME280;59602;52.142;5.408;2023-02-21T10:50:01;102089.84;;;9.05;99.18
71764;BME280;59602;52.142;5.408;2023-02-21T10:52:35;102094.25;;;9.10;98.95
71764;BME280;59602;52.142;5.408;2023-02-21T10:55:04;102098.66;;;9.14;99.19
71764;BME280;59602;52.142;5.408;2023-02-21T10:57:43;102095.94;;;9.14;99.19
71764;BME280;59602;52.142;5.408;2023-02-21T11:00:23;102098.66;;;9.14;99.04
71764;BME280;59602;52.142;5.408;2023-02-21T11:02:55;102096.72;;;9.15;99.10
71764;BME280;59602;52.142;5.408;2023-02-21T11:05:23;102096.41;;;9.17;98.89
71764;BME280;59602;52.142;5.408;2023-02-21T11:07:58;102096.06;;;9.18;98.79
71764;BME280;59602;52.142;5.408;2023-02-21T11:10:31;102098.09;;;9.21;98.75
71764;BME280;59602;52.142;5.408;2023-02-21T11:13:06;102096.53;;;9.20;98.76
71764;BME280;59602;52.142;5.408;2023-02-21T11:15:37;102093.34;;;9.18;98.57
71764;BME280;59602;52.142;5.408;2023-02-21T11:18:13;102093.81;;;9.20;98.77
71764;BME280;59602;52.142;5.408;2023-02-21T11:20:40;102090.75;;;9.22;98.62
71764;BME280;59602;52.142;5.408;2023-02-21T11:23:19;102090.41;;;9.23;98.90
71764;BME280;59602;52.142;5.408;2023-02-21T11:25:47;102080.78;;;9.26;98.62
71764;BME280;59602;52.142;5.408;2023-02-21T11:28:19;102082.41;;;9.27;98.68
71764;BME280;59602;52.142;5.408;2023-02-21T11:30:50;102088.72;;;9.31;98.51
71764;BME280;59602;52.142;5.408;2023-02-21T11:33:29;102081.84;;;9.33;98.42
71764;BME280;59602;52.142;5.408;2023-02-21T11:36:09;102081.72;;;9.30;98.16
71764;BME280;59602;52.142;5.408;2023-02-21T11:38:38;102079.69;;;9.27;98.25
71764;BME280;59602;52.142;5.408;2023-02-21T11:41:17;102084.66;;;9.25;97.95
71764;BME280;59602;52.142;5.408;2023-02-21T11:43:49;102081.16;;;9.24;98.08
71764;BME280;59602;52.142;5.408;2023-02-21T11:46:34;102081.16;;;9.24;98.17
71764;BME280;59602;52.142;5.408;2023-02-21T11:49:18;102077.19;;;9.22;98.07
71764;BME280;59602;52.142;5.408;2023-02-21T11:52:02;102077.63;;;9.24;98.02
71764;BME280;59602;52.142;5.408;2023-02-21T11:54:30;102072.56;;;9.22;98.00
71764;BME280;59602;52.142;5.408;2023-02-21T11:57:08;102080.34;;;9.24;98.32
71764;BME280;59602;52.142;5.408;2023-02-21T12:10:55;102066.44;;;9.25;98.19
71764;BME280;59602;52.142;5.408;2023-02-21T12:16:28;102065.31;;;9.26;98.46
71764;BME280;59602;52.142;5.408;2023-02-21T12:19:11;102063.03;;;9.28;98.45
71764;BME280;59602;52.142;5.408;2023-02-21T12:22:01;102056.50;;;9.29;98.71
71764;BME280;59602;52.142;5.408;2023-02-21T12:24:54;102061.13;;;9.29;98.17
71764;BME280;59602;52.142;5.408;2023-02-21T12:27:33;102052.19;;;9.28;98.17
71764;BME280;59602;52.142;5.408;2023-02-21T12:30:16;102057.06;;;9.23;98.27
71764;BME280;59602;52.142;5.408;2023-02-21T12:33:02;102058.31;;;9.25;98.50
71764;BME280;59602;52.142;5.408;2023-02-21T12:38:39;102049.13;;;9.30;98.28
71764;BME280;59602;52.142;5.408;2023-02-21T12:41:25;102039.53;;;9.32;98.34
71764;BME280;59602;52.142;5.408;2023-02-21T12:44:01;102040.31;;;9.33;98.43
71764;BME280;59602;52.142;5.408;2023-02-21T12:46:38;102040.66;;;9.31;98.40
71764;BME280;59602;52.142;5.408;2023-02-21T12:49:15;102039.06;;;9.30;98.14
71764;BME280;59602;52.142;5.408;2023-02-21T12:51:49;102038.72;;;9.32;98.17
71764;BME280;59602;52.142;5.408;2023-02-21T12:54:38;102037.59;;;9.33;98.41
71764;BME280;59602;52.142;5.408;2023-02-21T12:57:24;102027.53;;;9.33;98.21
71764;BME280;59602;52.142;5.408;2023-02-21T13:03:00;102022.13;;;9.33;98.13
71764;BME280;59602;52.142;5.408;2023-02-21T13:05:40;102035.31;;;9.35;98.05
71764;BME280;59602;52.142;5.408;2023-02-21T13:13:19;102022.56;;;9.35;98.23
71764;BME280;59602;52.142;5.408;2023-02-21T13:15:48;102020.28;;;9.38;98.33
71764;BME280;59602;52.142;5.408;2023-02-21T13:18:20;102021.44;;;9.37;98.17
71764;BME280;59602;52.142;5.408;2023-02-21T13:20:56;102026.84;;;9.37;98.09
71764;BME280;59602;52.142;5.408;2023-02-21T13:23:50;102026.16;;;9.40;98.25
71764;BME280;59602;52.142;5.408;2023-02-21T13:26:45;102019.94;;;9.39;98.08
71764;BME280;59602;52.142;5.408;2023-02-21T13:29:22;102012.94;;;9.38;98.17
71764;BME280;59602;52.142;5.408;2023-02-21T13:32:05;102010.13;;;9.34;98.21
71764;BME280;59602;52.142;5.408;2023-02-21T13:34:37;102013.97;;;9.33;98.48
71764;BME280;59602;52.142;5.408;2023-02-21T13:37:12;102007.41;;;9.34;98.26
71764;BME280;59602;52.142;5.408;2023-02-21T13:39:43;102004.22;;;9.32;98.12
71764;BME280;59602;52.142;5.408;2023-02-21T13:42:30;102002.53;;;9.28;98.32
71764;BME280;59602;52.142;5.408;2023-02-21T13:50:45;101990.00;;;9.35;98.63
71764;BME280;59602;52.142;5.408;2023-02-21T13:53:17;101995.44;;;9.35;98.40
71764;BME280;59602;52.142;5.408;2023-02-21T13:58:34;101992.81;;;9.39;98.61
71764;BME280;59602;52.142;5.408;2023-02-21T14:03:51;101973.72;;;9.35;98.41
71764;BME280;59602;52.142;5.408;2023-02-21T14:06:31;101982.28;;;9.38;98.35
71764;BME280;59602;52.142;5.408;2023-02-21T14:12:01;101983.53;;;9.40;98.05
71764;BME280;59602;52.142;5.408;2023-02-21T14:14:31;101984.22;;;9.37;97.95
71764;BME280;59602;52.142;5.408;2023-02-21T14:17:03;101982.97;;;9.34;98.24
71764;BME280;59602;52.142;5.408;2023-02-21T14:19:35;101985.00;;;9.38;98.26
71764;BME280;59602;52.142;5.408;2023-02-21T14:22:10;101983.09;;;9.38;98.27
71764;BME280;59602;52.142;5.408;2023-02-21T14:24:41;101988.16;;;9.40;98.16
71764;BME280;59602;52.142;5.408;2023-02-21T14:29:40;101990.19;;;9.43;98.03
71764;BME280;59602;52.142;5.408;2023-02-21T14:34:53;101978.44;;;9.39;97.87
71764;BME280;59602;52.142;5.408;2023-02-21T14:37:40;101979.94;;;9.36;97.86
71764;BME280;59602;52.142;5.408;2023-02-21T14:40:32;101979.13;;;9.35;97.59
71764;BME280;59602;52.142;5.408;2023-02-21T14:56:28;101978.00;;;9.37;97.74